Time;durP1;ratioP1;P1;durP2;ratioP2;P2;SDS_P1;SDS_P2;PMS_P1;PMS_P2;Temp;Humidity;BMP_temperature;BMP_pressure;BME280_temperature;BME280_humidity;BME280_pressure;Samples;Min_cycle;Max_cycle;Signal;HPM_P1;HPM_P2
2023/05/29 00:00:52;;;;;;;12.68;8.50;;;;;;;14.17;74.06;102141.72;5091745;28;20028;-64
2023/05/29 00:03:18;;;;;;;15.77;9.05;;;;;;;14.11;73.71;102142.06;5093384;28;20039;-64
2023/05/29 00:05:43;;;;;;;15.93;8.68;;;;;;;14.16;73.85;102133.78;5073612;28;20103;-64
2023/05/29 00:08:09;;;;;;;14.23;8.15;;;;;;;13.97;74.14;102133.97;5074404;28;20024;-64
2023/05/29 00:10:37;;;;;;;15.55;7.97;;;;;;;13.93;74.03;102145.81;5073873;28;20012;-64
2023/05/29 00:13:02;;;;;;;15.73;8.10;;;;;;;13.87;74.29;102149.69;5073071;28;20206;-64
2023/05/29 00:15:28;;;;;;;14.98;7.57;;;;;;;13.64;74.51;102143.78;5062285;28;20039;-64
2023/05/29 00:17:53;;;;;;;18.88;7.85;;;;;;;13.64;74.67;102153.63;5093023;28;20534;-63
2023/05/29 00:20:19;;;;;;;20.85;7.70;;;;;;;13.70;73.84;102155.09;5094209;28;20028;-64
2023/05/29 00:22:44;;;;;;;18.23;6.82;;;;;;;13.52;73.51;102155.16;5076382;28;20490;-63
2023/05/29 00:25:10;;;;;;;17.38;7.30;;;;;;;13.57;73.31;102152.25;5074115;28;20028;-63
2023/05/29 00:27:35;;;;;;;21.95;6.78;;;;;;;13.50;73.15;102140.16;5072609;28;20102;-63
2023/05/29 00:30:03;;;;;;;20.42;7.35;;;;;;;13.35;73.84;102161.44;5072022;28;20105;-64
2023/05/29 00:32:28;;;;;;;16.15;7.57;;;;;;;13.25;74.14;102151.28;5078384;28;20039;-64
2023/05/29 00:34:55;;;;;;;17.52;7.22;;;;;;;13.42;73.83;102163.78;5053966;28;20028;-63
2023/05/29 00:37:24;;;;;;;19.80;7.80;;;;;;;13.59;73.25;102158.38;5053621;28;20040;-63
2023/05/29 00:39:49;;;;;;;20.25;7.78;;;;;;;13.58;72.97;102162.84;5053478;28;20107;-63
2023/05/29 00:42:15;;;;;;;21.25;7.75;;;;;;;13.52;72.93;102160.50;5053610;28;20525;-63
2023/05/29 00:44:40;;;;;;;18.23;7.10;;;;;;;13.22;73.37;102164.81;5054178;28;20461;-64
2023/05/29 00:47:06;;;;;;;16.88;6.97;;;;;;;13.19;71.97;102163.16;5069620;28;20036;-64
2023/05/29 00:49:34;;;;;;;19.33;6.85;;;;;;;13.32;71.59;102174.09;5077384;28;20362;-64
2023/05/29 00:52:00;;;;;;;18.90;6.70;;;;;;;13.40;70.50;102171.88;5093623;28;20044;-63
2023/05/29 00:54:30;;;;;;;16.77;6.10;;;;;;;13.39;70.53;102188.84;5079430;28;20033;-63
2023/05/29 00:56:59;;;;;;;15.45;6.07;;;;;;;13.25;69.81;102178.91;5068603;28;20484;-64
2023/05/29 00:59:31;;;;;;;20.83;7.28;;;;;;;13.27;69.42;102173.47;5052808;28;20033;-64
2023/05/29 01:01:58;;;;;;;16.08;6.13;;;;;;;13.19;69.09;102174.69;5053469;28;20059;-64
2023/05/29 01:04:25;;;;;;;19.52;6.70;;;;;;;13.13;69.42;102187.53;5054047;28;20035;-63
2023/05/29 01:06:51;;;;;;;14.77;6.07;;;;;;;13.04;69.03;102186.19;5071004;28;20024;-64
2023/05/29 01:09:19;;;;;;;17.17;6.45;;;;;;;13.05;68.91;102187.91;5070408;28;20025;-63
2023/05/29 01:12:00;;;;;;;18.33;5.97;;;;;;;13.13;68.72;102190.19;5070557;28;20511;-64
2023/05/29 01:14:39;;;;;;;19.15;6.22;;;;;;;13.01;68.43;102194.38;5070308;28;20395;-63
2023/05/29 01:17:29;;;;;;;16.20;6.30;;;;;;;13.24;67.99;102197.66;5054725;28;20028;-64
2023/05/29 01:20:06;;;;;;;20.75;5.57;;;;;;;13.04;68.46;102202.22;5052696;28;20392;-64
2023/05/29 01:22:56;;;;;;;18.40;6.28;;;;;;;13.03;68.19;102189.81;5053455;28;20212;-63
2023/05/29 01:25:49;;;;;;;19.63;6.35;;;;;;;13.00;68.02;102200.66;5059362;28;20507;-64
2023/05/29 01:28:19;;;;;;;19.38;6.90;;;;;;;12.94;68.12;102200.94;5045332;28;20033;-63
2023/05/29 01:30:46;;;;;;;16.83;6.28;;;;;;;12.83;68.46;102187.31;5052275;28;20025;-64
2023/05/29 01:33:11;;;;;;;18.52;6.25;;;;;;;12.78;68.84;102200.88;5078029;28;20028;-64
2023/05/29 01:35:37;;;;;;;18.27;6.55;;;;;;;12.72;69.28;102202.06;5052630;28;20071;-63
2023/05/29 01:38:02;;;;;;;18.60;7.13;;;;;;;12.73;68.81;102201.13;5052198;28;20033;-64
2023/05/29 01:40:28;;;;;;;18.33;6.53;;;;;;;12.67;69.02;102205.88;5061100;28;20035;-64
2023/05/29 01:42:56;;;;;;;19.60;5.85;;;;;;;12.50;69.81;102188.06;5075344;28;20032;-64
2023/05/29 01:45:22;;;;;;;18.38;6.70;;;;;;;12.50;69.75;102194.28;5052212;28;20048;-63
2023/05/29 01:47:47;;;;;;;20.40;6.30;;;;;;;12.61;69.55;102200.88;5052522;28;20460;-63
2023/05/29 01:50:17;;;;;;;21.63;6.78;;;;;;;12.56;69.29;102194.88;5052328;28;20020;-63
2023/05/29 01:52:43;;;;;;;20.30;6.57;;;;;;;12.73;68.74;102201.13;5052951;28;20081;-64
2023/05/29 01:55:09;;;;;;;16.35;6.40;;;;;;;12.42;69.54;102198.25;5065850;28;20479;-63
2023/05/29 01:57:35;;;;;;;16.58;6.18;;;;;;;12.27;70.58;102192.72;5076007;28;20020;-64
2023/05/29 02:00:08;;;;;;;21.30;7.10;;;;;;;12.24;70.82;102184.00;5091923;28;20034;-64
2023/05/29 02:02:37;;;;;;;15.50;6.45;;;;;;;12.19;70.74;102191.38;5091195;28;20028;-63
2023/05/29 02:05:02;;;;;;;19.75;6.78;;;;;;;12.49;69.82;102191.66;5059154;28;20111;-63
2023/05/29 02:07:28;;;;;;;25.88;6.95;;;;;;;12.31;70.71;102193.44;5067286;28;20112;-63
2023/05/29 02:09:53;;;;;;;17.98;5.95;;;;;;;12.31;70.17;102189.91;5051728;28;20035;-63
2023/05/29 02:12:19;;;;;;;17.85;6.47;;;;;;;12.46;69.88;102191.81;5051953;28;20023;-63
2023/05/29 02:14:44;;;;;;;20.45;6.53;;;;;;;12.28;70.42;102189.09;5081085;28;20106;-64
2023/05/29 02:17:10;;;;;;;16.20;6.07;;;;;;;12.35;70.17;102186.13;5092171;28;20020;-63
2023/05/29 02:19:41;;;;;;;18.10;6.30;;;;;;;12.30;70.64;102202.38;5090693;28;20024;-63
2023/05/29 02:22:07;;;;;;;15.65;5.80;;;;;;;12.13;70.74;102205.84;5091819;28;20471;-64
2023/05/29 02:24:32;;;;;;;18.67;6.28;;;;;;;12.01;71.01;102207.31;5076888;28;20038;-63
2023/05/29 02:26:58;;;;;;;15.77;6.07;;;;;;;12.03;70.66;102185.91;5070689;28;20033;-64
2023/05/29 02:29:23;;;;;;;21.67;6.43;;;;;;;12.12;70.38;102193.47;5069678;28;20387;-63
2023/05/29 02:31:49;;;;;;;20.02;7.32;;;;;;;11.93;70.97;102206.78;5077946;28;20051;-63
2023/05/29 02:34:14;;;;;;;17.55;6.53;;;;;;;12.16;70.59;102204.84;5082175;28;20071;-63
2023/05/29 02:36:40;;;;;;;21.13;6.63;;;;;;;11.98;70.85;102203.94;5071655;28;20050;-63
2023/05/29 02:39:05;;;;;;;17.10;6.28;;;;;;;12.14;70.51;102214.72;5070130;28;20410;-63
2023/05/29 02:41:31;;;;;;;21.75;6.40;;;;;;;12.27;69.98;102210.53;5070382;28;20029;-63
2023/05/29 02:43:56;;;;;;;18.60;6.88;;;;;;;12.12;69.77;102206.81;5070946;28;20032;-63
2023/05/29 02:46:21;;;;;;;19.15;6.03;;;;;;;12.12;70.18;102216.59;5071604;28;20040;-63
2023/05/29 02:48:48;;;;;;;16.83;6.00;;;;;;;11.98;70.83;102211.94;5057397;28;20083;-63
2023/05/29 02:51:13;;;;;;;21.30;5.72;;;;;;;11.89;71.05;102215.88;5051094;28;20070;-63
2023/05/29 02:53:39;;;;;;;15.10;5.93;;;;;;;11.87;70.86;102212.41;5054262;28;20020;-63
2023/05/29 02:56:06;;;;;;;20.05;6.43;;;;;;;11.70;71.27;102231.81;5056119;28;20021;-63
2023/05/29 02:58:32;;;;;;;19.17;6.18;;;;;;;11.83;71.04;102229.47;5069356;28;20053;-64
2023/05/29 03:00:58;;;;;;;17.73;6.03;;;;;;;11.72;71.67;102226.41;5070235;28;20028;-63
2023/05/29 03:03:23;;;;;;;21.50;6.63;;;;;;;11.78;71.21;102226.13;5069875;28;20380;-63
2023/05/29 03:05:49;;;;;;;16.73;5.70;;;;;;;11.60;71.95;102226.03;5068964;28;20036;-63
2023/05/29 03:08:14;;;;;;;12.77;5.55;;;;;;;11.74;71.51;102224.56;5069132;28;20028;-63
2023/05/29 03:10:40;;;;;;;17.67;5.75;;;;;;;11.74;71.11;102232.56;5061872;28;20082;-63
2023/05/29 03:13:06;;;;;;;20.60;6.13;;;;;;;11.71;71.18;102214.91;5057164;28;20025;-63
2023/05/29 03:15:31;;;;;;;22.60;5.90;;;;;;;11.64;71.79;102226.75;5049229;28;20029;-63
2023/05/29 03:17:57;;;;;;;16.92;6.70;;;;;;;11.59;71.75;102226.97;5061891;28;20240;-63
2023/05/29 03:20:23;;;;;;;20.67;6.93;;;;;;;11.60;72.12;102222.50;5067317;28;20020;-63
2023/05/29 03:22:51;;;;;;;15.75;6.70;;;;;;;11.36;72.34;102216.50;5069694;28;20506;-63
2023/05/29 03:25:20;;;;;;;19.42;6.28;;;;;;;11.32;72.77;102218.44;5071200;28;20024;-63
2023/05/29 03:27:46;;;;;;;24.50;7.00;;;;;;;11.26;73.48;102213.34;5058417;28;20020;-64
2023/05/29 03:30:12;;;;;;;20.05;6.07;;;;;;;11.41;72.98;102227.78;5065606;28;20043;-63
2023/05/29 03:32:37;;;;;;;18.65;5.82;;;;;;;11.35;73.47;102230.72;5070516;28;20032;-63
2023/05/29 03:35:03;;;;;;;14.45;5.95;;;;;;;11.23;73.14;102220.63;5069993;28;20048;-63
2023/05/29 03:37:31;;;;;;;17.88;5.68;;;;;;;11.46;73.17;102230.25;5064604;28;20520;-63
2023/05/29 03:39:56;;;;;;;22.98;7.22;;;;;;;11.19;73.92;102225.22;5069501;28;20036;-63
2023/05/29 03:42:22;;;;;;;21.05;6.22;;;;;;;11.17;74.10;102218.22;5059457;28;20037;-63
2023/05/29 03:44:47;;;;;;;20.48;6.32;;;;;;;11.18;73.75;102227.94;5054295;28;20491;-63
2023/05/29 03:47:12;;;;;;;23.55;6.70;;;;;;;11.16;74.36;102230.69;5054555;28;20029;-65
2023/05/29 03:49:38;;;;;;;20.83;6.88;;;;;;;11.35;73.74;102241.38;5064337;28;20468;-63
2023/05/29 03:52:04;;;;;;;21.20;6.55;;;;;;;11.47;73.38;102243.53;5072706;28;20105;-62
2023/05/29 03:54:29;;;;;;;22.10;6.88;;;;;;;11.38;73.61;102235.91;5073214;28;20024;-63
2023/05/29 03:56:55;;;;;;;21.10;6.80;;;;;;;11.35;74.06;102238.72;5074570;28;20032;-63
2023/05/29 03:59:20;;;;;;;24.92;7.18;;;;;;;11.37;73.77;102240.38;5063839;28;20155;-63
2023/05/29 04:01:46;;;;;;;23.45;7.65;;;;;;;11.24;74.44;102246.34;5072745;28;20024;-63
2023/05/29 04:04:11;;;;;;;19.73;7.15;;;;;;;11.30;74.16;102238.94;5062991;28;20032;-63
2023/05/29 04:06:38;;;;;;;21.00;6.78;;;;;;;11.39;73.83;102248.31;5072567;28;20032;-63
2023/05/29 04:09:04;;;;;;;21.42;7.22;;;;;;;11.23;74.82;102241.91;5073282;28;20523;-63
2023/05/29 04:11:33;;;;;;;23.65;7.22;;;;;;;11.19;75.06;102246.53;5103526;28;20032;-63
2023/05/29 04:13:59;;;;;;;27.52;7.95;;;;;;;11.11;75.24;102262.81;5068722;28;20056;-63
2023/05/29 04:16:25;;;;;;;19.05;6.30;;;;;;;11.25;74.92;102258.72;5073678;28;20067;-63
2023/05/29 04:18:50;;;;;;;23.60;7.18;;;;;;;11.08;75.40;102257.63;5073832;28;20387;-62
2023/05/29 04:21:16;;;;;;;30.55;8.38;;;;;;;11.16;75.13;102261.78;5071980;28;20016;-63
2023/05/29 04:23:41;;;;;;;25.48;7.07;;;;;;;11.03;75.60;102253.41;5073999;28;20031;-63
2023/05/29 04:26:10;;;;;;;25.33;7.15;;;;;;;11.30;75.14;102260.25;5072505;28;20120;-63
2023/05/29 04:28:37;;;;;;;24.23;6.97;;;;;;;11.23;75.43;102268.56;5072556;28;20020;-62
2023/05/29 04:31:03;;;;;;;20.27;6.82;;;;;;;11.11;75.92;102261.94;5082156;28;20079;-62
2023/05/29 04:33:29;;;;;;;27.90;8.00;;;;;;;11.22;75.14;102266.84;5073053;28;20479;-63
2023/05/29 04:35:54;;;;;;;22.92;7.28;;;;;;;11.12;75.61;102253.91;5073601;28;20024;-63
2023/05/29 04:38:24;;;;;;;24.13;7.35;;;;;;;11.19;75.48;102265.16;5073488;28;20029;-62
2023/05/29 04:40:50;;;;;;;23.70;7.90;;;;;;;11.13;75.60;102268.94;5073106;28;20029;-63
2023/05/29 04:43:16;;;;;;;22.25;7.18;;;;;;;11.26;75.02;102271.94;5073685;28;20025;-63
2023/05/29 04:45:42;;;;;;;26.00;6.90;;;;;;;11.12;75.53;102267.22;5073079;28;20031;-63
2023/05/29 04:48:08;;;;;;;20.65;7.03;;;;;;;11.22;75.85;102275.69;5081415;28;20024;-63
2023/05/29 04:50:34;;;;;;;26.30;7.43;;;;;;;10.97;76.15;102264.31;5079315;28;20025;-63
2023/05/29 04:52:59;;;;;;;21.33;7.05;;;;;;;11.11;75.88;102275.25;5072942;28;20097;-62
2023/05/29 04:55:25;;;;;;;22.08;7.57;;;;;;;11.26;75.14;102269.28;5071827;28;20040;-63
2023/05/29 04:57:51;;;;;;;22.27;6.95;;;;;;;11.30;75.03;102278.88;5073331;28;20030;-62
2023/05/29 05:00:17;;;;;;;18.67;5.97;;;;;;;11.34;74.92;102276.94;5072238;28;20027;-62
2023/05/29 05:02:44;;;;;;;23.13;7.40;;;;;;;11.40;74.71;102279.34;5073267;28;20025;-63
2023/05/29 05:05:12;;;;;;;24.77;7.65;;;;;;;11.50;74.37;102283.34;5083338;28;20108;-63
2023/05/29 05:07:38;;;;;;;28.30;6.65;;;;;;;11.31;74.72;102269.09;5092162;28;20043;-63
2023/05/29 05:10:04;;;;;;;20.48;6.47;;;;;;;11.63;73.51;102274.81;5081414;28;20487;-63
2023/05/29 05:12:30;;;;;;;21.77;8.15;;;;;;;11.47;74.66;102269.28;5072666;28;20033;-63
2023/05/29 05:14:55;;;;;;;20.63;7.60;;;;;;;11.40;74.64;102286.47;5068049;28;20021;-63
2023/05/29 05:17:23;;;;;;;22.35;7.53;;;;;;;11.22;74.74;102269.50;5072508;28;20422;-63
2023/05/29 05:19:53;;;;;;;21.85;7.15;;;;;;;11.45;73.72;102289.81;5067834;28;20095;-63
2023/05/29 05:22:18;;;;;;;23.70;6.93;;;;;;;11.58;73.57;102289.19;5083879;28;20058;-63
2023/05/29 05:24:44;;;;;;;25.25;7.18;;;;;;;11.58;73.15;102294.50;5078340;28;20475;-63
2023/05/29 05:27:09;;;;;;;24.42;7.30;;;;;;;11.60;72.88;102291.81;5084384;28;20019;-63
2023/05/29 05:29:34;;;;;;;28.95;7.80;;;;;;;11.66;72.90;102298.66;5082134;28;20502;-63
2023/05/29 05:32:00;;;;;;;26.60;6.85;;;;;;;11.53;73.34;102293.88;5072936;28;20025;-63
2023/05/29 05:34:25;;;;;;;24.85;7.60;;;;;;;11.62;72.93;102305.94;5067309;28;20019;-63
2023/05/29 05:36:50;;;;;;;20.95;7.22;;;;;;;11.67;73.46;102309.22;5054390;28;20102;-63
2023/05/29 05:39:16;;;;;;;28.13;6.80;;;;;;;11.71;72.70;102310.00;5071000;28;20045;-64
2023/05/29 05:41:41;;;;;;;24.60;7.65;;;;;;;11.72;72.51;102307.25;5072469;28;20020;-63
2023/05/29 05:44:07;;;;;;;25.35;7.38;;;;;;;11.70;72.08;102310.91;5070421;28;20555;-63
2023/05/29 05:46:32;;;;;;;23.77;6.95;;;;;;;11.70;71.84;102300.25;5069938;28;20028;-63
2023/05/29 05:49:00;;;;;;;20.63;6.70;;;;;;;11.75;71.27;102312.44;5070482;28;20035;-63
2023/05/29 05:51:26;;;;;;;18.30;6.03;;;;;;;11.82;71.37;102310.34;5072031;28;20035;-63
2023/05/29 05:53:52;;;;;;;26.20;6.95;;;;;;;11.91;71.03;102309.09;5072107;28;20024;-63
2023/05/29 05:56:17;;;;;;;25.15;6.88;;;;;;;11.88;71.14;102301.25;5068516;28;20036;-63
2023/05/29 05:58:43;;;;;;;21.67;6.07;;;;;;;11.90;70.86;102302.91;5069381;28;20051;-63
2023/05/29 06:01:08;;;;;;;27.48;7.65;;;;;;;11.93;71.19;102302.78;5071555;28;20043;-63
2023/05/29 06:03:34;;;;;;;27.75;6.93;;;;;;;12.00;70.53;102293.59;5070810;28;20114;-63
2023/05/29 06:06:00;;;;;;;24.38;6.70;;;;;;;12.01;71.54;102299.78;5072099;28;20055;-63
2023/05/29 06:08:25;;;;;;;24.58;6.80;;;;;;;12.22;70.70;102296.09;5071605;28;20588;-63
2023/05/29 06:10:51;;;;;;;25.67;6.35;;;;;;;12.39;69.68;102295.31;5070547;28;20024;-63
2023/05/29 06:13:16;;;;;;;24.40;7.65;;;;;;;12.50;69.33;102300.16;5082245;28;20042;-63
2023/05/29 06:15:43;;;;;;;23.02;7.00;;;;;;;12.43;69.59;102307.56;5071378;28;20028;-63
2023/05/29 06:18:10;;;;;;;19.05;6.65;;;;;;;12.58;68.01;102308.63;5067842;28;20038;-63
2023/05/29 06:20:36;;;;;;;27.58;7.22;;;;;;;12.60;68.37;102314.78;5068465;28;20020;-63
2023/05/29 06:23:01;;;;;;;25.77;7.65;;;;;;;12.66;67.35;102318.97;5071701;28;20070;-63
2023/05/29 06:25:32;;;;;;;20.13;6.88;;;;;;;12.75;67.55;102320.31;5070291;28;20099;-63
2023/05/29 06:28:02;;;;;;;22.60;6.97;;;;;;;12.82;67.29;102317.25;5071530;28;20383;-63
2023/05/29 06:30:28;;;;;;;23.00;6.38;;;;;;;12.91;67.89;102315.94;5072702;28;20060;-64
2023/05/29 06:32:54;;;;;;;23.17;5.90;;;;;;;12.80;65.96;102318.28;5071852;28;20021;-63
2023/05/29 06:35:20;;;;;;;19.00;6.50;;;;;;;12.87;65.83;102333.06;5070417;28;20517;-63
2023/05/29 06:37:46;;;;;;;24.38;7.32;;;;;;;12.93;66.00;102328.28;5071765;28;20032;-63
2023/05/29 06:40:12;;;;;;;20.48;6.22;;;;;;;12.88;65.26;102335.69;5070091;28;20471;-63
2023/05/29 06:42:38;;;;;;;21.38;6.53;;;;;;;12.85;65.25;102325.16;5069434;28;21383;-63
2023/05/29 06:45:04;;;;;;;22.95;6.30;;;;;;;13.02;64.09;102324.28;5070813;28;20020;-63
2023/05/29 06:47:29;;;;;;;19.77;7.28;;;;;;;13.19;64.09;102334.13;5084371;28;20012;-63
2023/05/29 06:49:54;;;;;;;23.88;6.60;;;;;;;13.27;63.63;102331.13;5080157;28;20485;-63
2023/05/29 06:52:20;;;;;;;23.95;6.68;;;;;;;13.30;63.16;102334.50;5069798;28;20041;-63
2023/05/29 06:54:46;;;;;;;17.15;5.93;;;;;;;13.32;63.42;102324.56;5069267;28;20032;-63
2023/05/29 06:57:11;;;;;;;18.60;5.93;;;;;;;13.52;62.56;102341.41;5071232;28;20020;-64
2023/05/29 06:59:37;;;;;;;18.90;5.88;;;;;;;13.62;61.61;102338.19;5062175;28;20024;-63
2023/05/29 07:02:03;;;;;;;27.55;6.88;;;;;;;13.59;62.99;102330.34;5068473;28;20101;-63
2023/05/29 07:04:28;;;;;;;18.40;6.22;;;;;;;13.72;62.17;102332.38;5082798;28;20372;-63
2023/05/29 07:06:53;;;;;;;18.63;6.03;;;;;;;13.79;63.24;102328.41;5084409;28;20013;-63
2023/05/29 07:09:19;;;;;;;18.15;6.10;;;;;;;13.69;62.84;102333.38;5070904;28;20421;-64
2023/05/29 07:11:45;;;;;;;21.42;5.88;;;;;;;13.89;62.03;102328.81;5074760;28;20062;-63
2023/05/29 07:14:10;;;;;;;22.65;6.32;;;;;;;13.88;61.91;102338.63;5074810;28;20052;-63
2023/05/29 07:16:36;;;;;;;19.02;6.82;;;;;;;14.01;62.14;102334.34;5074205;28;20048;-63
2023/05/29 07:19:01;;;;;;;16.23;5.70;;;;;;;14.18;60.93;102341.47;5073733;28;20020;-64
2023/05/29 07:21:26;;;;;;;15.38;6.13;;;;;;;14.30;60.53;102348.84;5061942;28;20031;-63
2023/05/29 07:23:52;;;;;;;19.35;5.70;;;;;;;14.28;59.41;102341.84;5093257;28;20104;-64
2023/05/29 07:26:17;;;;;;;17.52;5.80;;;;;;;14.43;59.17;102346.34;5072990;28;20032;-63
2023/05/29 07:28:43;;;;;;;20.80;6.45;;;;;;;14.51;58.68;102344.13;5073417;28;20024;-63
2023/05/29 07:31:08;;;;;;;23.98;6.88;;;;;;;14.59;58.46;102345.50;5070626;28;20040;-63
2023/05/29 07:33:34;;;;;;;17.25;5.82;;;;;;;14.51;58.61;102329.84;5068304;28;20026;-64
2023/05/29 07:36:02;;;;;;;18.17;6.18;;;;;;;14.61;57.45;102344.47;5067567;28;20028;-63
2023/05/29 07:38:27;;;;;;;18.33;5.22;;;;;;;14.79;57.71;102344.41;5072781;28;20608;-63
2023/05/29 07:40:52;;;;;;;13.88;5.28;;;;;;;14.85;56.07;102349.41;5072683;28;20040;-63
2023/05/29 07:43:18;;;;;;;17.75;5.43;;;;;;;14.88;56.71;102347.44;5064538;28;20033;-64
2023/05/29 07:45:45;;;;;;;20.33;5.82;;;;;;;15.06;57.11;102355.34;5069298;28;20063;-63
2023/05/29 07:48:11;;;;;;;19.92;5.95;;;;;;;14.92;56.68;102354.34;5068651;28;20025;-63
2023/05/29 07:50:36;;;;;;;15.20;5.75;;;;;;;15.05;56.39;102361.66;5072765;28;20413;-63
2023/05/29 07:53:02;;;;;;;17.25;5.38;;;;;;;15.24;55.49;102365.00;5073839;28;20225;-64
2023/05/29 07:55:27;;;;;;;24.77;5.55;;;;;;;15.35;55.92;102354.53;5072356;28;20163;-64
2023/05/29 07:57:53;;;;;;;15.75;5.35;;;;;;;15.41;56.61;102358.63;5072475;28;20383;-64
2023/05/29 08:00:18;;;;;;;24.70;5.88;;;;;;;15.57;55.80;102356.78;5071590;28;20031;-64
2023/05/29 08:02:44;;;;;;;14.80;4.88;;;;;;;15.70;54.88;102358.75;5073004;28;20142;-64
2023/05/29 08:05:09;;;;;;;18.90;5.20;;;;;;;15.81;53.55;102357.13;5069928;28;20031;-64
2023/05/29 08:07:36;;;;;;;16.58;5.15;;;;;;;15.72;54.20;102363.06;5071105;28;20028;-63
2023/05/29 08:10:02;;;;;;;21.40;5.20;;;;;;;15.75;53.75;102362.88;5071489;28;20020;-63
2023/05/29 08:12:27;;;;;;;13.57;5.40;;;;;;;15.53;53.67;102363.28;5072128;28;20035;-63
2023/05/29 08:14:53;;;;;;;13.55;4.88;;;;;;;15.74;52.46;102368.38;5072132;28;20103;-64
2023/05/29 08:17:18;;;;;;;15.50;5.20;;;;;;;15.67;53.46;102341.00;5054536;28;20039;-64
2023/05/29 08:19:43;;;;;;;16.75;5.03;;;;;;;15.77;53.48;102355.63;5065399;28;20025;-63
2023/05/29 08:22:13;;;;;;;15.32;5.50;;;;;;;15.96;53.50;102368.75;5077118;28;20496;-63
2023/05/29 08:24:39;;;;;;;15.48;5.30;;;;;;;16.07;52.49;102371.66;5071495;28;21309;-64
2023/05/29 08:27:04;;;;;;;16.15;5.32;;;;;;;16.29;51.64;102356.88;5073112;28;20024;-63
2023/05/29 08:29:32;;;;;;;15.02;5.60;;;;;;;16.42;51.77;102371.25;5072736;28;20020;-62
2023/05/29 08:31:57;;;;;;;17.83;5.70;;;;;;;16.67;50.88;102362.47;5073085;28;20468;-63
2023/05/29 08:34:25;;;;;;;15.00;4.70;;;;;;;17.16;49.58;102380.81;5071711;28;20039;-61
2023/05/29 08:36:54;;;;;;;14.25;4.50;;;;;;;17.43;48.30;102370.03;5072397;28;20105;-62
2023/05/29 08:39:20;;;;;;;;;;;;;;;17.89;49.27;102377.69;5072799;28;20417;-60
2023/05/29 08:42:11;;;;;;;16.05;5.35;;;;;;;17.82;47.57;102380.88;5105319;27;19908;-63
2023/05/29 08:44:39;;;;;;;17.25;4.85;;;;;;;17.83;47.12;102378.09;5070373;28;20048;-62
2023/05/29 08:47:10;;;;;;;19.92;5.63;;;;;;;17.98;47.18;102372.63;5071272;28;20031;-62
2023/05/29 08:49:42;;;;;;;12.55;4.20;;;;;;;17.84;47.31;102362.81;5069442;28;20169;-62
2023/05/29 08:52:20;;;;;;;14.48;4.60;;;;;;;18.01;47.30;102381.34;5068223;28;20052;-62
2023/05/29 08:54:46;;;;;;;14.88;4.85;;;;;;;18.02;47.41;102382.19;5071555;28;20103;-63
2023/05/29 08:57:11;;;;;;;17.23;4.65;;;;;;;18.27;46.16;102379.50;5072978;28;20116;-63
2023/05/29 08:59:41;;;;;;;13.93;5.53;;;;;;;18.36;45.74;102384.22;5072405;28;20102;-61
2023/05/29 09:02:07;;;;;;;17.13;5.03;;;;;;;18.58;45.09;102388.91;5072317;28;20029;-62
2023/05/29 09:04:32;;;;;;;19.70;5.07;;;;;;;18.72;43.99;102387.06;5059837;28;20062;-63
2023/05/29 09:06:58;;;;;;;15.38;5.07;;;;;;;18.79;44.26;102391.06;5068687;28;20024;-62
2023/05/29 09:09:26;;;;;;;12.13;4.30;;;;;;;18.92;44.06;102397.28;5068141;28;20048;-63
2023/05/29 09:11:53;;;;;;;11.85;4.55;;;;;;;18.98;43.58;102394.13;5072149;28;20016;-62
2023/05/29 09:14:40;;;;;;;12.18;4.57;;;;;;;19.34;44.31;102391.50;5071185;28;20503;-61
2023/05/29 09:17:08;;;;;;;16.30;5.10;;;;;;;19.35;43.59;102404.84;5086346;28;20032;-62
2023/05/29 09:19:33;;;;;;;11.80;4.43;;;;;;;19.28;42.55;102390.97;5072097;28;20079;-62
2023/05/29 09:22:07;;;;;;;11.18;4.60;;;;;;;19.42;43.23;102400.72;5072122;28;20495;-64
2023/05/29 09:24:34;;;;;;;10.25;4.38;;;;;;;19.35;42.12;102398.59;5066902;28;20115;-65
2023/05/29 09:27:00;;;;;;;12.00;3.83;;;;;;;19.38;43.03;102396.53;5072801;28;20509;-65
2023/05/29 09:29:31;;;;;;;14.80;4.95;;;;;;;19.39;43.97;102403.66;5072306;28;20050;-66
2023/05/29 09:31:57;;;;;;;11.93;4.32;;;;;;;19.50;42.56;102386.63;5071135;28;20047;-65
2023/05/29 09:34:27;;;;;;;25.15;5.63;;;;;;;19.47;41.55;102385.06;5070534;28;20031;-67
2023/05/29 09:36:53;;;;;;;9.90;3.92;;;;;;;19.65;41.22;102384.66;5072269;28;20479;-65
2023/05/29 09:39:21;;;;;;;12.27;4.47;;;;;;;19.99;40.64;102377.47;5070699;28;20043;-63
2023/05/29 09:41:48;;;;;;;16.45;4.72;;;;;;;20.17;40.49;102372.44;5071230;28;20120;-64
2023/05/29 09:44:15;;;;;;;11.27;4.32;;;;;;;20.38;40.75;102373.47;5071508;28;20036;-63
2023/05/29 09:46:45;;;;;;;21.05;4.80;;;;;;;20.48;40.29;102383.53;5069455;28;20033;-61
2023/05/29 09:49:16;;;;;;;30.35;5.45;;;;;;;20.65;40.66;102383.06;5072571;28;20023;-61
2023/05/29 09:51:44;;;;;;;81.28;10.77;;;;;;;20.92;39.39;102379.91;5072045;28;20024;-61
2023/05/29 09:54:16;;;;;;;12.85;4.55;;;;;;;21.02;39.80;102383.56;5104514;28;20024;-61
2023/05/29 09:56:45;;;;;;;21.30;4.43;;;;;;;21.31;39.58;102373.00;5072403;28;20059;-62
2023/05/29 09:59:12;;;;;;;14.07;4.10;;;;;;;21.53;38.19;102380.22;5070023;28;20116;-61
2023/05/29 10:01:43;;;;;;;21.92;5.55;;;;;;;21.27;37.75;102376.97;5072759;28;20020;-65
2023/05/29 10:04:10;;;;;;;11.93;3.97;;;;;;;21.18;37.88;102380.47;5071725;28;20425;-66
2023/05/29 10:06:38;;;;;;;18.17;4.40;;;;;;;20.91;39.21;102378.19;5068546;28;20021;-65
2023/05/29 10:09:10;;;;;;;14.93;3.65;;;;;;;20.72;39.68;102383.41;5072013;28;20024;-65
2023/05/29 10:11:37;;;;;;;18.08;4.60;;;;;;;20.63;40.40;102377.75;5068983;28;20412;-64
2023/05/29 10:14:05;;;;;;;11.02;4.05;;;;;;;20.94;40.07;102371.66;5070965;28;20039;-63
2023/05/29 10:16:35;;;;;;;18.23;4.43;;;;;;;21.21;39.05;102368.53;5071995;28;20028;-64
2023/05/29 10:19:07;;;;;;;10.00;3.72;;;;;;;21.25;38.86;102351.03;5070070;28;20480;-62
2023/05/29 10:21:36;;;;;;;50.75;6.57;;;;;;;21.45;37.96;102369.19;5063414;28;20028;-63
2023/05/29 10:24:06;;;;;;;18.30;5.22;;;;;;;21.52;37.68;102362.25;5069546;28;20032;-62
2023/05/29 10:26:36;;;;;;;35.72;5.85;;;;;;;21.69;38.49;102370.78;5071875;28;20021;-62
2023/05/29 10:29:25;;;;;;;14.48;4.47;;;;;;;21.84;39.34;102371.28;5070101;28;20017;-63
2023/05/29 10:32:12;;;;;;;10.98;4.10;;;;;;;21.88;38.85;102367.31;5067696;28;20028;-65
2023/05/29 10:35:00;;;;;;;18.48;4.22;;;;;;;21.97;38.83;102361.09;5067933;28;20048;-63
2023/05/29 10:37:37;;;;;;;12.10;4.43;;;;;;;21.93;37.47;102363.22;5070104;28;20064;-63
2023/05/29 10:40:05;;;;;;;16.20;4.35;;;;;;;22.14;38.29;102359.63;5071578;28;20055;-69
2023/05/29 10:42:48;;;;;;;14.07;4.35;;;;;;;22.52;37.80;102364.38;5065587;28;20506;-65
2023/05/29 10:45:32;;;;;;;12.75;4.05;;;;;;;22.58;36.88;102373.81;5074871;28;20051;-64
2023/05/29 10:48:06;;;;;;;14.57;4.35;;;;;;;22.34;36.18;102371.44;5075671;28;20024;-63
2023/05/29 10:50:58;;;;;;;11.00;3.60;;;;;;;22.38;37.06;102372.88;5078199;28;20310;-65
2023/05/29 10:53:30;;;;;;;10.13;4.30;;;;;;;21.59;37.41;102362.59;5075490;28;20076;-64
2023/05/29 10:55:56;;;;;;;9.82;3.92;;;;;;;21.33;37.19;102351.25;5078222;28;20029;-64
2023/05/29 10:58:24;;;;;;;8.77;3.45;;;;;;;21.17;37.13;102361.63;5076979;28;20025;-64
2023/05/29 11:00:50;;;;;;;12.38;3.58;;;;;;;21.13;38.83;102360.19;5077695;28;20357;-65
2023/05/29 11:03:20;;;;;;;9.63;3.70;;;;;;;21.16;39.63;102358.06;5077585;28;20104;-65
2023/05/29 11:06:04;;;;;;;10.52;4.00;;;;;;;21.17;39.66;102342.69;5078049;28;20498;-66
2023/05/29 11:08:44;;;;;;;12.60;4.80;;;;;;;21.37;39.85;102343.75;5077924;28;20050;-66
2023/05/29 11:11:12;;;;;;;10.13;3.40;;;;;;;21.34;39.41;102350.25;5077198;28;20048;-64
2023/05/29 11:13:40;;;;;;;11.87;4.07;;;;;;;21.31;39.32;102345.09;5077790;28;20024;-67
2023/05/29 11:16:11;;;;;;;15.20;4.38;;;;;;;21.15;38.33;102331.13;5076375;28;20705;-66
2023/05/29 11:18:45;;;;;;;10.05;3.83;;;;;;;21.28;39.06;102334.53;5076938;28;20020;-67